sensor_id;sensor_type;location;lat;lon;timestamp;pressure;altitude;pressure_sealevel;temperature;humidity
12759;BME280;20944;47.048;15.390;2023-07-29T00:01:09;97168.66;;;21.14;100.00
12759;BME280;20944;47.048;15.390;2023-07-29T00:03:38;97169.16;;;21.19;100.00
12759;BME280;20944;47.048;15.390;2023-07-29T00:06:06;97163.31;;;21.14;100.00
12759;BME280;20944;47.048;15.390;2023-07-29T00:08:34;97178.38;;;21.26;100.00
12759;BME280;20944;47.048;15.390;2023-07-29T00:11:03;97172.41;;;21.22;100.00
12759;BME280;20944;47.048;15.390;2023-07-29T00:13:32;97166.69;;;20.93;100.00
12759;BME280;20944;47.048;15.390;2023-07-29T00:16:01;97133.19;;;20.56;100.00
12759;BME280;20944;47.048;15.390;2023-07-29T00:18:29;97174.19;;;20.88;100.00
12759;BME280;20944;47.048;15.390;2023-07-29T00:20:58;97143.25;;;20.63;100.00
12759;BME280;20944;47.048;15.390;2023-07-29T00:23:26;97176.72;;;20.90;100.00
12759;BME280;20944;47.048;15.390;2023-07-29T00:25:54;97179.38;;;20.90;100.00
12759;BME280;20944;47.048;15.390;2023-07-29T00:28:23;97105.22;;;20.50;100.00
12759;BME280;20944;47.048;15.390;2023-07-29T00:30:52;97169.28;;;20.71;100.00
12759;BME280;20944;47.048;15.390;2023-07-29T00:33:21;97174.38;;;20.74;100.00
12759;BME280;20944;47.048;15.390;2023-07-29T00:35:49;97155.69;;;20.52;100.00
12759;BME280;20944;47.048;15.390;2023-07-29T00:38:17;97178.97;;;20.72;100.00
12759;BME280;20944;47.048;15.390;2023-07-29T00:40:45;97040.75;;;19.87;100.00
12759;BME280;20944;47.048;15.390;2023-07-29T00:43:14;97153.75;;;20.54;100.00
12759;BME280;20944;47.048;15.390;2023-07-29T00:45:43;97166.00;;;20.67;100.00
12759;BME280;20944;47.048;15.390;2023-07-29T00:48:13;97103.41;;;20.27;100.00
12759;BME280;20944;47.048;15.390;2023-07-29T00:50:42;97166.38;;;20.63;100.00
12759;BME280;20944;47.048;15.390;2023-07-29T00:53:10;97166.13;;;20.66;100.00
12759;BME280;20944;47.048;15.390;2023-07-29T00:55:37;97089.72;;;20.20;100.00
12759;BME280;20944;47.048;15.390;2023-07-29T00:58:06;97160.66;;;20.67;100.00
12759;BME280;20944;47.048;15.390;2023-07-29T01:00:35;97155.72;;;20.74;100.00
12759;BME280;20944;47.048;15.390;2023-07-29T01:03:04;97154.78;;;20.75;100.00
12759;BME280;20944;47.048;15.390;2023-07-29T01:05:38;97141.09;;;20.68;100.00
12759;BME280;20944;47.048;15.390;2023-07-29T01:08:12;97142.88;;;20.57;100.00
12759;BME280;20944;47.048;15.390;2023-07-29T01:10:54;97140.59;;;20.39;100.00
12759;BME280;20944;47.048;15.390;2023-07-29T01:13:30;97143.44;;;20.25;100.00
12759;BME280;20944;47.048;15.390;2023-07-29T01:16:04;97141.75;;;20.24;100.00
12759;BME280;20944;47.048;15.390;2023-07-29T01:18:35;97105.56;;;19.98;100.00
12759;BME280;20944;47.048;15.390;2023-07-29T01:21:08;97140.34;;;20.31;100.00
12759;BME280;20944;47.048;15.390;2023-07-29T01:23:38;96891.69;;;18.71;100.00
12759;BME280;20944;47.048;15.390;2023-07-29T01:26:07;97146.78;;;20.16;100.00
12759;BME280;20944;47.048;15.390;2023-07-29T01:28:35;97130.59;;;19.95;100.00
12759;BME280;20944;47.048;15.390;2023-07-29T01:31:10;97142.09;;;19.96;100.00
12759;BME280;20944;47.048;15.390;2023-07-29T01:33:45;97142.66;;;19.88;100.00
12759;BME280;20944;47.048;15.390;2023-07-29T01:36:21;97127.28;;;19.80;100.00
12759;BME280;20944;47.048;15.390;2023-07-29T01:38:54;97134.09;;;19.72;100.00
12759;BME280;20944;47.048;15.390;2023-07-29T01:41:24;97126.31;;;19.81;100.00
12759;BME280;20944;47.048;15.390;2023-07-29T01:43:53;97118.91;;;19.74;100.00
12759;BME280;20944;47.048;15.390;2023-07-29T01:46:22;97147.94;;;20.01;100.00
12759;BME280;20944;47.048;15.390;2023-07-29T01:48:50;97154.69;;;20.05;100.00
12759;BME280;20944;47.048;15.390;2023-07-29T01:51:19;97152.91;;;20.05;100.00
12759;BME280;20944;47.048;15.390;2023-07-29T01:53:47;97113.41;;;19.88;100.00
12759;BME280;20944;47.048;15.390;2023-07-29T01:56:17;97120.03;;;19.82;100.00
12759;BME280;20944;47.048;15.390;2023-07-29T01:58:45;97141.63;;;20.02;100.00
12759;BME280;20944;47.048;15.390;2023-07-29T02:01:13;97144.31;;;20.02;100.00
12759;BME280;20944;47.048;15.390;2023-07-29T02:03:42;97132.41;;;19.94;100.00
12759;BME280;20944;47.048;15.390;2023-07-29T02:06:10;97144.63;;;19.97;100.00
12759;BME280;20944;47.048;15.390;2023-07-29T02:08:38;97136.44;;;20.00;100.00
12759;BME280;20944;47.048;15.390;2023-07-29T02:11:08;97142.50;;;20.02;100.00
12759;BME280;20944;47.048;15.390;2023-07-29T02:13:37;97106.47;;;19.85;100.00
12759;BME280;20944;47.048;15.390;2023-07-29T02:16:06;97141.53;;;20.03;100.00
12759;BME280;20944;47.048;15.390;2023-07-29T02:18:34;97140.16;;;19.98;100.00
12759;BME280;20944;47.048;15.390;2023-07-29T02:21:02;97144.19;;;20.03;100.00
12759;BME280;20944;47.048;15.390;2023-07-29T02:23:31;97082.66;;;19.60;100.00
12759;BME280;20944;47.048;15.390;2023-07-29T02:26:00;97110.75;;;19.88;100.00
12759;BME280;20944;47.048;15.390;2023-07-29T02:28:28;97136.06;;;20.05;100.00
12759;BME280;20944;47.048;15.390;2023-07-29T02:31:17;97153.53;;;20.09;100.00
12759;BME280;20944;47.048;15.390;2023-07-29T02:33:46;97153.63;;;20.07;100.00
12759;BME280;20944;47.048;15.390;2023-07-29T02:36:15;97134.56;;;19.89;100.00
12759;BME280;20944;47.048;15.390;2023-07-29T02:38:43;97149.75;;;20.00;100.00
12759;BME280;20944;47.048;15.390;2023-07-29T02:41:12;97102.31;;;19.70;100.00
12759;BME280;20944;47.048;15.390;2023-07-29T02:43:43;97143.09;;;19.82;100.00
12759;BME280;20944;47.048;15.390;2023-07-29T02:46:11;97162.06;;;20.01;100.00
12759;BME280;20944;47.048;15.390;2023-07-29T02:48:41;97150.84;;;19.85;100.00
12759;BME280;20944;47.048;15.390;2023-07-29T02:51:10;97155.97;;;19.88;100.00
12759;BME280;20944;47.048;15.390;2023-07-29T02:53:38;97158.28;;;19.92;100.00
12759;BME280;20944;47.048;15.390;2023-07-29T02:56:06;97138.75;;;19.81;100.00
12759;BME280;20944;47.048;15.390;2023-07-29T02:58:36;97140.03;;;19.75;100.00
12759;BME280;20944;47.048;15.390;2023-07-29T03:01:05;97152.50;;;19.75;100.00
12759;BME280;20944;47.048;15.390;2023-07-29T03:03:34;97154.19;;;19.76;100.00
12759;BME280;20944;47.048;15.390;2023-07-29T03:06:05;97157.38;;;19.81;100.00
12759;BME280;20944;47.048;15.390;2023-07-29T03:08:34;97166.34;;;19.91;100.00
12759;BME280;20944;47.048;15.390;2023-07-29T03:11:05;97153.81;;;19.93;100.00
12759;BME280;20944;47.048;15.390;2023-07-29T03:13:34;97149.88;;;19.86;100.00
12759;BME280;20944;47.048;15.390;2023-07-29T03:16:06;97152.25;;;19.78;100.00
12759;BME280;20944;47.048;15.390;2023-07-29T03:18:35;97170.66;;;19.81;100.00
12759;BME280;20944;47.048;15.390;2023-07-29T03:21:05;97142.63;;;19.51;100.00
12759;BME280;20944;47.048;15.390;2023-07-29T03:23:34;97171.56;;;19.43;100.00
12759;BME280;20944;47.048;15.390;2023-07-29T03:26:03;97169.00;;;19.29;100.00
12759;BME280;20944;47.048;15.390;2023-07-29T03:28:41;97161.38;;;19.37;100.00
12759;BME280;20944;47.048;15.390;2023-07-29T03:31:10;97149.56;;;19.28;100.00
12759;BME280;20944;47.048;15.390;2023-07-29T03:33:38;97151.03;;;19.45;100.00
12759;BME280;20944;47.048;15.390;2023-07-29T03:36:08;97155.91;;;19.51;100.00
12759;BME280;20944;47.048;15.390;2023-07-29T03:38:36;97154.13;;;19.39;100.00
12759;BME280;20944;47.048;15.390;2023-07-29T03:41:07;97150.31;;;19.43;100.00
12759;BME280;20944;47.048;15.390;2023-07-29T03:43:36;97156.03;;;19.50;100.00
12759;BME280;20944;47.048;15.390;2023-07-29T03:46:04;97162.41;;;19.60;100.00
12759;BME280;20944;47.048;15.390;2023-07-29T03:48:37;97171.44;;;19.70;100.00
12759;BME280;20944;47.048;15.390;2023-07-29T03:51:06;97096.94;;;19.33;100.00
12759;BME280;20944;47.048;15.390;2023-07-29T03:53:35;97174.09;;;19.70;100.00
12759;BME280;20944;47.048;15.390;2023-07-29T03:56:04;97172.41;;;19.69;100.00
12759;BME280;20944;47.048;15.390;2023-07-29T03:58:32;97181.09;;;19.71;100.00
12759;BME280;20944;47.048;15.390;2023-07-29T04:01:01;97139.84;;;19.53;100.00
12759;BME280;20944;47.048;15.390;2023-07-29T04:03:29;97179.25;;;19.84;100.00
12759;BME280;20944;47.048;15.390;2023-07-29T04:05:57;97180.13;;;19.72;100.00
12759;BME280;20944;47.048;15.390;2023-07-29T04:08:26;97193.34;;;19.74;100.00
12759;BME280;20944;47.048;15.390;2023-07-29T04:10:55;97182.78;;;19.72;100.00
12759;BME280;20944;47.048;15.390;2023-07-29T04:13:24;97191.81;;;19.82;100.00
12759;BME280;20944;47.048;15.390;2023-07-29T04:15:52;97199.56;;;19.85;100.00
12759;BME280;20944;47.048;15.390;2023-07-29T04:18:20;97195.00;;;19.87;100.00
12759;BME280;20944;47.048;15.390;2023-07-29T04:20:49;97199.69;;;19.84;100.00
12759;BME280;20944;47.048;15.390;2023-07-29T04:23:17;97190.31;;;19.78;100.00
12759;BME280;20944;47.048;15.390;2023-07-29T04:25:45;97202.97;;;19.87;100.00
12759;BME280;20944;47.048;15.390;2023-07-29T04:28:15;97211.38;;;19.94;100.00
12759;BME280;20944;47.048;15.390;2023-07-29T04:30:43;97209.44;;;19.96;100.00
12759;BME280;20944;47.048;15.390;2023-07-29T04:33:12;97205.91;;;19.96;100.00
12759;BME280;20944;47.048;15.390;2023-07-29T04:35:40;97210.47;;;20.06;100.00
12759;BME280;20944;47.048;15.390;2023-07-29T04:38:08;97204.31;;;20.06;100.00
12759;BME280;20944;47.048;15.390;2023-07-29T04:40:36;97209.19;;;20.12;100.00
12759;BME280;20944;47.048;15.390;2023-07-29T04:43:04;97208.81;;;20.16;100.00
12759;BME280;20944;47.048;15.390;2023-07-29T04:45:34;97213.00;;;20.08;100.00
12759;BME280;20944;47.048;15.390;2023-07-29T04:48:03;97218.06;;;20.00;100.00
12759;BME280;20944;47.048;15.390;2023-07-29T04:50:31;97215.59;;;19.97;100.00
12759;BME280;20944;47.048;15.390;2023-07-29T04:53:00;97223.13;;;20.03;100.00
12759;BME280;20944;47.048;15.390;2023-07-29T04:55:28;97217.38;;;20.09;100.00
12759;BME280;20944;47.048;15.390;2023-07-29T04:57:56;97135.28;;;19.67;100.00
12759;BME280;20944;47.048;15.390;2023-07-29T05:00:26;97219.25;;;20.19;100.00
12759;BME280;20944;47.048;15.390;2023-07-29T05:02:56;97214.44;;;20.25;100.00
12759;BME280;20944;47.048;15.390;2023-07-29T05:05:24;97210.31;;;20.20;100.00
12759;BME280;20944;47.048;15.390;2023-07-29T05:07:53;97216.22;;;20.37;100.00
12759;BME280;20944;47.048;15.390;2023-07-29T05:10:21;97208.78;;;20.29;100.00
12759;BME280;20944;47.048;15.390;2023-07-29T05:12:49;97201.75;;;20.28;100.00
12759;BME280;20944;47.048;15.390;2023-07-29T05:15:18;97222.88;;;20.42;100.00
12759;BME280;20944;47.048;15.390;2023-07-29T05:17:46;97217.53;;;20.42;100.00
12759;BME280;20944;47.048;15.390;2023-07-29T05:20:16;97217.66;;;20.41;100.00
12759;BME280;20944;47.048;15.390;2023-07-29T05:22:44;97222.13;;;20.40;100.00
12759;BME280;20944;47.048;15.390;2023-07-29T05:25:13;97220.44;;;20.39;100.00
12759;BME280;20944;47.048;15.390;2023-07-29T05:27:41;97223.63;;;20.44;100.00
12759;BME280;20944;47.048;15.390;2023-07-29T05:30:09;97224.38;;;20.46;100.00
12759;BME280;20944;47.048;15.390;2023-07-29T05:32:38;97166.88;;;20.20;100.00
12759;BME280;20944;47.048;15.390;2023-07-29T05:35:07;97224.25;;;20.48;100.00
12759;BME280;20944;47.048;15.390;2023-07-29T05:37:38;97211.28;;;20.43;100.00
12759;BME280;20944;47.048;15.390;2023-07-29T05:40:07;97218.00;;;20.49;100.00
12759;BME280;20944;47.048;15.390;2023-07-29T05:42:36;97210.50;;;20.54;100.00
12759;BME280;20944;47.048;15.390;2023-07-29T05:45:06;97224.56;;;20.56;100.00
12759;BME280;20944;47.048;15.390;2023-07-29T05:47:34;97221.59;;;20.48;100.00
12759;BME280;20944;47.048;15.390;2023-07-29T05:50:04;97221.72;;;20.46;100.00
12759;BME280;20944;47.048;15.390;2023-07-29T05:52:32;97228.91;;;20.57;100.00
12759;BME280;20944;47.048;15.390;2023-07-29T05:55:03;97202.78;;;20.38;100.00
12759;BME280;20944;47.048;15.390;2023-07-29T05:57:31;97238.03;;;20.66;100.00
12759;BME280;20944;47.048;15.390;2023-07-29T05:59:59;97243.69;;;20.61;100.00
12759;BME280;20944;47.048;15.390;2023-07-29T06:02:27;97232.16;;;20.50;100.00
12759;BME280;20944;47.048;15.390;2023-07-29T06:04:56;97233.22;;;20.47;100.00
12759;BME280;20944;47.048;15.390;2023-07-29T06:07:24;97232.75;;;20.53;100.00
12759;BME280;20944;47.048;15.390;2023-07-29T06:09:56;97235.22;;;20.56;100.00
12759;BME280;20944;47.048;15.390;2023-07-29T06:12:26;97231.72;;;20.67;100.00
12759;BME280;20944;47.048;15.390;2023-07-29T06:14:54;97230.41;;;20.72;100.00
12759;BME280;20944;47.048;15.390;2023-07-29T06:17:22;97228.03;;;20.81;100.00
12759;BME280;20944;47.048;15.390;2023-07-29T06:19:51;97227.34;;;20.90;100.00
12759;BME280;20944;47.048;15.390;2023-07-29T06:22:19;97232.13;;;21.09;100.00
12759;BME280;20944;47.048;15.390;2023-07-29T06:24:47;97228.66;;;21.31;100.00
12759;BME280;20944;47.048;15.390;2023-07-29T06:27:16;97222.75;;;21.49;100.00
12759;BME280;20944;47.048;15.390;2023-07-29T06:29:45;97231.13;;;21.67;100.00
12759;BME280;20944;47.048;15.390;2023-07-29T06:32:14;97224.19;;;21.98;100.00
12759;BME280;20944;47.048;15.390;2023-07-29T06:34:42;97221.25;;;22.24;100.00
12759;BME280;20944;47.048;15.390;2023-07-29T06:37:10;97223.25;;;22.43;100.00
12759;BME280;20944;47.048;15.390;2023-07-29T06:39:38;97215.59;;;22.49;100.00
12759;BME280;20944;47.048;15.390;2023-07-29T06:42:07;97215.22;;;22.54;100.00
12759;BME280;20944;47.048;15.390;2023-07-29T06:44:35;97208.44;;;22.50;100.00
12759;BME280;20944;47.048;15.390;2023-07-29T06:47:05;97216.41;;;22.61;100.00
12759;BME280;20944;47.048;15.390;2023-07-29T06:49:33;97226.72;;;22.66;100.00
12759;BME280;20944;47.048;15.390;2023-07-29T06:52:02;97224.75;;;22.68;100.00
12759;BME280;20944;47.048;15.390;2023-07-29T06:54:30;97223.44;;;22.62;100.00
12759;BME280;20944;47.048;15.390;2023-07-29T06:56:58;97231.59;;;22.60;100.00
12759;BME280;20944;47.048;15.390;2023-07-29T06:59:27;97224.22;;;22.53;100.00
12759;BME280;20944;47.048;15.390;2023-07-29T07:01:55;97207.47;;;22.51;100.00
12759;BME280;20944;47.048;15.390;2023-07-29T07:04:25;97206.69;;;22.60;100.00
12759;BME280;20944;47.048;15.390;2023-07-29T07:06:53;97185.31;;;22.39;100.00
12759;BME280;20944;47.048;15.390;2023-07-29T07:09:22;97226.97;;;22.62;100.00
12759;BME280;20944;47.048;15.390;2023-07-29T07:11:50;97221.38;;;22.66;100.00
12759;BME280;20944;47.048;15.390;2023-07-29T07:14:19;97226.72;;;22.66;100.00
12759;BME280;20944;47.048;15.390;2023-07-29T07:16:47;97213.59;;;22.62;100.00
12759;BME280;20944;47.048;15.390;2023-07-29T07:19:15;97197.66;;;22.72;100.00
12759;BME280;20944;47.048;15.390;2023-07-29T07:21:45;97144.25;;;22.72;100.00
12759;BME280;20944;47.048;15.390;2023-07-29T07:24:13;97212.19;;;23.32;97.35
12759;BME280;20944;47.048;15.390;2023-07-29T07:26:42;97164.00;;;23.23;97.57
12759;BME280;20944;47.048;15.390;2023-07-29T07:29:10;97209.47;;;23.53;92.41
12759;BME280;20944;47.048;15.390;2023-07-29T07:31:38;97197.38;;;23.59;90.67
12759;BME280;20944;47.048;15.390;2023-07-29T07:34:07;97162.56;;;23.49;89.36
12759;BME280;20944;47.048;15.390;2023-07-29T07:36:35;97205.59;;;24.07;88.35
12759;BME280;20944;47.048;15.390;2023-07-29T07:39:05;97210.59;;;24.31;86.50
12759;BME280;20944;47.048;15.390;2023-07-29T07:41:33;97197.81;;;24.54;85.93
12759;BME280;20944;47.048;15.390;2023-07-29T07:44:02;97201.91;;;24.68;83.48
12759;BME280;20944;47.048;15.390;2023-07-29T07:46:30;97183.00;;;24.69;82.41
12759;BME280;20944;47.048;15.390;2023-07-29T07:48:59;97179.34;;;24.90;82.85
12759;BME280;20944;47.048;15.390;2023-07-29T07:51:27;97193.72;;;25.18;80.83
12759;BME280;20944;47.048;15.390;2023-07-29T07:53:55;97185.63;;;25.37;77.60
12759;BME280;20944;47.048;15.390;2023-07-29T07:56:25;97185.28;;;25.50;78.33
12759;BME280;20944;47.048;15.390;2023-07-29T07:58:53;97178.09;;;25.50;75.61
12759;BME280;20944;47.048;15.390;2023-07-29T08:01:21;97186.22;;;25.68;75.22
12759;BME280;20944;47.048;15.390;2023-07-29T08:03:50;97191.72;;;25.76;73.43
12759;BME280;20944;47.048;15.390;2023-07-29T08:06:18;97188.75;;;25.79;73.71
12759;BME280;20944;47.048;15.390;2023-07-29T08:08:46;97196.97;;;25.96;74.00
12759;BME280;20944;47.048;15.390;2023-07-29T08:11:15;97183.75;;;26.12;74.79
12759;BME280;20944;47.048;15.390;2023-07-29T08:13:45;97112.34;;;25.74;69.94
12759;BME280;20944;47.048;15.390;2023-07-29T08:16:13;97159.16;;;25.89;71.81
12759;BME280;20944;47.048;15.390;2023-07-29T08:18:42;97186.44;;;26.12;68.91
12759;BME280;20944;47.048;15.390;2023-07-29T08:21:10;97166.97;;;26.10;71.56
12759;BME280;20944;47.048;15.390;2023-07-29T08:23:38;97179.50;;;26.37;69.19
12759;BME280;20944;47.048;15.390;2023-07-29T08:26:07;97135.28;;;26.31;67.53
12759;BME280;20944;47.048;15.390;2023-07-29T08:28:36;97178.59;;;26.64;67.15
12759;BME280;20944;47.048;15.390;2023-07-29T08:31:07;97177.91;;;26.80;66.74
12759;BME280;20944;47.048;15.390;2023-07-29T08:33:35;97174.28;;;26.89;63.06
12759;BME280;20944;47.048;15.390;2023-07-29T08:36:04;97138.84;;;26.68;64.05
12759;BME280;20944;47.048;15.390;2023-07-29T08:38:33;97168.63;;;26.74;63.20
12759;BME280;20944;47.048;15.390;2023-07-29T08:41:08;97159.72;;;26.74;65.74
12759;BME280;20944;47.048;15.390;2023-07-29T08:43:44;97097.00;;;26.47;67.21
12759;BME280;20944;47.048;15.390;2023-07-29T08:46:19;97169.34;;;27.02;64.45
12759;BME280;20944;47.048;15.390;2023-07-29T08:48:47;97179.88;;;27.13;67.70
12759;BME280;20944;47.048;15.390;2023-07-29T08:51:17;97171.56;;;27.25;68.81
12759;BME280;20944;47.048;15.390;2023-07-29T08:53:48;97172.78;;;27.30;69.78
12759;BME280;20944;47.048;15.390;2023-07-29T08:56:17;97171.47;;;27.34;69.60
12759;BME280;20944;47.048;15.390;2023-07-29T08:58:45;97125.56;;;27.10;67.69
12759;BME280;20944;47.048;15.390;2023-07-29T09:01:14;97171.34;;;27.44;63.58
12759;BME280;20944;47.048;15.390;2023-07-29T09:03:44;97177.84;;;27.33;64.31
12759;BME280;20944;47.048;15.390;2023-07-29T09:06:13;97134.16;;;26.96;68.77
12759;BME280;20944;47.048;15.390;2023-07-29T09:08:43;97170.03;;;27.22;70.44
12759;BME280;20944;47.048;15.390;2023-07-29T09:11:13;97032.00;;;26.52;72.62
12759;BME280;20944;47.048;15.390;2023-07-29T09:13:43;97164.78;;;27.47;72.14
12759;BME280;20944;47.048;15.390;2023-07-29T09:16:12;97172.59;;;27.58;69.13
12759;BME280;20944;47.048;15.390;2023-07-29T09:18:41;97170.28;;;27.63;63.61
12759;BME280;20944;47.048;15.390;2023-07-29T09:21:11;97164.88;;;27.63;62.07
12759;BME280;20944;47.048;15.390;2023-07-29T09:23:40;97147.31;;;27.51;59.45
12759;BME280;20944;47.048;15.390;2023-07-29T09:26:08;97160.03;;;27.66;59.29
12759;BME280;20944;47.048;15.390;2023-07-29T09:28:38;97162.13;;;27.73;56.80
12759;BME280;20944;47.048;15.390;2023-07-29T09:31:06;97148.56;;;27.64;56.49
12759;BME280;20944;47.048;15.390;2023-07-29T09:33:35;97159.34;;;27.64;56.00
12759;BME280;20944;47.048;15.390;2023-07-29T09:36:08;97154.56;;;27.50;53.84
12759;BME280;20944;47.048;15.390;2023-07-29T09:38:38;97147.09;;;27.10;55.55
12759;BME280;20944;47.048;15.390;2023-07-29T09:41:07;97150.34;;;27.22;55.24
12759;BME280;20944;47.048;15.390;2023-07-29T09:43:35;97103.13;;;26.83;56.23
12759;BME280;20944;47.048;15.390;2023-07-29T09:46:05;97142.97;;;27.24;58.16
12759;BME280;20944;47.048;15.390;2023-07-29T09:48:34;97145.22;;;27.36;57.06
12759;BME280;20944;47.048;15.390;2023-07-29T09:51:13;97146.38;;;27.60;57.03
12759;BME280;20944;47.048;15.390;2023-07-29T09:53:43;97152.09;;;27.65;58.46
12759;BME280;20944;47.048;15.390;2023-07-29T09:56:14;97159.09;;;27.76;57.19
12759;BME280;20944;47.048;15.390;2023-07-29T09:58:43;97110.09;;;27.46;56.44
12759;BME280;20944;47.048;15.390;2023-07-29T10:01:13;97144.50;;;27.86;56.93
12759;BME280;20944;47.048;15.390;2023-07-29T10:03:42;97098.63;;;27.70;55.71
12759;BME280;20944;47.048;15.390;2023-07-29T10:06:12;97137.16;;;28.05;53.90
12759;BME280;20944;47.048;15.390;2023-07-29T10:08:43;97147.59;;;28.16;53.36
12759;BME280;20944;47.048;15.390;2023-07-29T10:11:12;97154.50;;;28.10;49.67
12759;BME280;20944;47.048;15.390;2023-07-29T10:13:41;97148.53;;;27.90;51.17
12759;BME280;20944;47.048;15.390;2023-07-29T10:16:23;97132.22;;;27.58;53.75
12759;BME280;20944;47.048;15.390;2023-07-29T10:18:53;97072.81;;;27.17;51.13
12759;BME280;20944;47.048;15.390;2023-07-29T10:21:22;97150.09;;;27.67;54.14
12759;BME280;20944;47.048;15.390;2023-07-29T10:23:53;97145.13;;;27.72;51.94
12759;BME280;20944;47.048;15.390;2023-07-29T10:26:26;97157.13;;;27.94;54.76
12759;BME280;20944;47.048;15.390;2023-07-29T10:28:59;97141.34;;;28.07;55.47
12759;BME280;20944;47.048;15.390;2023-07-29T10:31:32;97145.66;;;28.34;57.02
12759;BME280;20944;47.048;15.390;2023-07-29T10:34:02;97144.13;;;28.32;50.50
12759;BME280;20944;47.048;15.390;2023-07-29T10:36:30;97145.91;;;28.15;54.90
12759;BME280;20944;47.048;15.390;2023-07-29T10:39:00;97148.13;;;28.19;53.79
12759;BME280;20944;47.048;15.390;2023-07-29T10:41:56;97137.16;;;28.21;53.27
12759;BME280;20944;47.048;15.390;2023-07-29T10:44:51;97138.75;;;28.32;54.92
12759;BME280;20944;47.048;15.390;2023-07-29T10:47:21;97145.34;;;28.45;56.89
12759;BME280;20944;47.048;15.390;2023-07-29T10:49:52;97133.22;;;28.58;55.05
12759;BME280;20944;47.048;15.390;2023-07-29T10:52:39;96923.41;;;27.05;54.97
12759;BME280;20944;47.048;15.390;2023-07-29T10:55:27;97085.59;;;28.08;53.33
12759;BME280;20944;47.048;15.390;2023-07-29T10:58:07;97098.53;;;27.96;51.66
12759;BME280;20944;47.048;15.390;2023-07-29T11:00:37;97104.81;;;28.05;55.77
12759;BME280;20944;47.048;15.390;2023-07-29T11:03:06;97120.31;;;28.19;55.35
12759;BME280;20944;47.048;15.390;2023-07-29T11:05:43;97118.09;;;27.98;54.87
12759;BME280;20944;47.048;15.390;2023-07-29T11:08:19;97106.59;;;27.88;57.33
12759;BME280;20944;47.048;15.390;2023-07-29T11:11:07;97108.47;;;27.95;54.63
12759;BME280;20944;47.048;15.390;2023-07-29T11:13:37;97109.88;;;28.16;58.10
12759;BME280;20944;47.048;15.390;2023-07-29T11:16:06;97110.78;;;28.33;60.90
12759;BME280;20944;47.048;15.390;2023-07-29T11:18:35;97075.41;;;28.44;59.76
12759;BME280;20944;47.048;15.390;2023-07-29T11:21:03;97091.09;;;28.73;58.38
12759;BME280;20944;47.048;15.390;2023-07-29T11:23:33;97091.41;;;28.78;59.10
12759;BME280;20944;47.048;15.390;2023-07-29T11:26:02;97045.22;;;28.65;61.22
12759;BME280;20944;47.048;15.390;2023-07-29T11:28:38;97088.38;;;29.06;60.35
12759;BME280;20944;47.048;15.390;2023-07-29T11:31:06;97094.06;;;29.19;57.81
12759;BME280;20944;47.048;15.390;2023-07-29T11:33:34;97083.31;;;29.02;57.81
12759;BME280;20944;47.048;15.390;2023-07-29T11:36:03;97085.19;;;28.69;58.54
12759;BME280;20944;47.048;15.390;2023-07-29T11:38:31;97077.44;;;28.42;59.26
12759;BME280;20944;47.048;15.390;2023-07-29T11:41:03;97081.44;;;28.30;61.44
12759;BME280;20944;47.048;15.390;2023-07-29T11:43:36;97073.56;;;28.44;62.08
12759;BME280;20944;47.048;15.390;2023-07-29T11:46:04;97062.25;;;28.57;59.32
12759;BME280;20944;47.048;15.390;2023-07-29T11:48:33;97063.28;;;28.56;60.45
12759;BME280;20944;47.048;15.390;2023-07-29T11:51:02;97060.25;;;28.67;57.91
12759;BME280;20944;47.048;15.390;2023-07-29T11:53:31;97058.72;;;28.65;58.24
12759;BME280;20944;47.048;15.390;2023-07-29T11:55:59;97043.88;;;28.69;60.79
12759;BME280;20944;47.048;15.390;2023-07-29T11:58:28;97045.56;;;28.94;64.21
12759;BME280;20944;47.048;15.390;2023-07-29T12:00:58;97048.16;;;29.27;60.63
12759;BME280;20944;47.048;15.390;2023-07-29T12:03:27;97034.25;;;29.46;58.08
12759;BME280;20944;47.048;15.390;2023-07-29T12:05:55;97023.59;;;29.61;56.50
12759;BME280;20944;47.048;15.390;2023-07-29T12:08:24;97031.72;;;29.53;56.79
12759;BME280;20944;47.048;15.390;2023-07-29T12:10:53;97028.63;;;29.64;58.19
12759;BME280;20944;47.048;15.390;2023-07-29T12:13:24;97033.16;;;29.95;55.64
12759;BME280;20944;47.048;15.390;2023-07-29T12:15:52;97031.69;;;30.15;54.74
12759;BME280;20944;47.048;15.390;2023-07-29T12:18:32;97033.47;;;30.31;55.04
12759;BME280;20944;47.048;15.390;2023-07-29T12:21:00;97022.94;;;30.36;55.45
12759;BME280;20944;47.048;15.390;2023-07-29T12:23:29;97028.50;;;30.57;55.09
12759;BME280;20944;47.048;15.390;2023-07-29T12:25:58;97014.56;;;30.69;54.69
12759;BME280;20944;47.048;15.390;2023-07-29T12:28:27;97008.66;;;30.42;56.03
12759;BME280;20944;47.048;15.390;2023-07-29T12:30:56;97003.53;;;30.32;55.04
12759;BME280;20944;47.048;15.390;2023-07-29T12:33:33;97013.44;;;30.40;55.62
12759;BME280;20944;47.048;15.390;2023-07-29T12:36:02;97011.56;;;30.41;56.22
12759;BME280;20944;47.048;15.390;2023-07-29T12:38:31;97013.34;;;30.48;55.54
12759;BME280;20944;47.048;15.390;2023-07-29T12:40:59;97010.53;;;30.79;55.84
12759;BME280;20944;47.048;15.390;2023-07-29T12:43:28;97003.66;;;30.77;53.90
12759;BME280;20944;47.048;15.390;2023-07-29T12:45:57;97024.16;;;30.86;54.43
12759;BME280;20944;47.048;15.390;2023-07-29T12:48:25;96967.63;;;30.39;53.82
12759;BME280;20944;47.048;15.390;2023-07-29T12:50:55;96993.84;;;30.38;54.31
12759;BME280;20944;47.048;15.390;2023-07-29T12:53:24;97019.09;;;30.30;52.96
12759;BME280;20944;47.048;15.390;2023-07-29T12:55:52;97031.25;;;30.03;55.22
12759;BME280;20944;47.048;15.390;2023-07-29T12:58:20;97029.00;;;29.84;54.62